sensor_id;sensor_type;location;lat;lon;timestamp;P1;durP1;ratioP1;P2;durP2;ratioP2
562;SDS011;266;49.514;8.294;2023-06-26T00:01:23;4.77;;;4.23;;
562;SDS011;266;49.514;8.294;2023-06-26T00:03:52;5.67;;;4.90;;
562;SDS011;266;49.514;8.294;2023-06-26T00:06:20;4.80;;;3.80;;
562;SDS011;266;49.514;8.294;2023-06-26T00:08:50;5.30;;;4.80;;
562;SDS011;266;49.514;8.294;2023-06-26T00:11:19;4.80;;;4.40;;
562;SDS011;266;49.514;8.294;2023-06-26T00:13:47;5.20;;;4.70;;
562;SDS011;266;49.514;8.294;2023-06-26T00:16:15;4.53;;;4.13;;
562;SDS011;266;49.514;8.294;2023-06-26T00:18:43;4.80;;;4.30;;
562;SDS011;266;49.514;8.294;2023-06-26T00:21:12;4.93;;;4.43;;
562;SDS011;266;49.514;8.294;2023-06-26T00:23:40;4.00;;;3.70;;
562;SDS011;266;49.514;8.294;2023-06-26T00:26:08;4.97;;;4.53;;
562;SDS011;266;49.514;8.294;2023-06-26T00:28:36;5.00;;;4.40;;
562;SDS011;266;49.514;8.294;2023-06-26T00:31:04;5.57;;;4.97;;
562;SDS011;266;49.514;8.294;2023-06-26T00:33:32;5.33;;;4.40;;
562;SDS011;266;49.514;8.294;2023-06-26T00:36:00;4.90;;;4.50;;
562;SDS011;266;49.514;8.294;2023-06-26T00:38:29;4.50;;;4.10;;
562;SDS011;266;49.514;8.294;2023-06-26T00:40:57;4.93;;;4.33;;
562;SDS011;266;49.514;8.294;2023-06-26T00:43:25;4.50;;;3.83;;
562;SDS011;266;49.514;8.294;2023-06-26T00:45:53;4.87;;;4.47;;
562;SDS011;266;49.514;8.294;2023-06-26T00:48:21;5.47;;;5.07;;
562;SDS011;266;49.514;8.294;2023-06-26T00:50:49;4.20;;;3.83;;
562;SDS011;266;49.514;8.294;2023-06-26T00:53:17;4.30;;;4.00;;
562;SDS011;266;49.514;8.294;2023-06-26T00:55:47;5.00;;;4.50;;
562;SDS011;266;49.514;8.294;2023-06-26T00:58:15;4.93;;;4.47;;
562;SDS011;266;49.514;8.294;2023-06-26T01:00:43;5.63;;;5.10;;
562;SDS011;266;49.514;8.294;2023-06-26T01:03:11;4.00;;;3.70;;
562;SDS011;266;49.514;8.294;2023-06-26T01:05:39;4.70;;;4.30;;
562;SDS011;266;49.514;8.294;2023-06-26T01:08:12;6.00;;;4.90;;
562;SDS011;266;49.514;8.294;2023-06-26T01:10:40;5.60;;;5.10;;
562;SDS011;266;49.514;8.294;2023-06-26T01:13:09;5.80;;;4.37;;
562;SDS011;266;49.514;8.294;2023-06-26T01:15:39;5.13;;;4.63;;
562;SDS011;266;49.514;8.294;2023-06-26T01:18:07;4.60;;;4.20;;
562;SDS011;266;49.514;8.294;2023-06-26T01:20:36;5.17;;;4.77;;
562;SDS011;266;49.514;8.294;2023-06-26T01:23:13;4.93;;;4.43;;
562;SDS011;266;49.514;8.294;2023-06-26T01:25:49;4.50;;;4.10;;
562;SDS011;266;49.514;8.294;2023-06-26T01:28:27;4.83;;;4.43;;
562;SDS011;266;49.514;8.294;2023-06-26T01:30:56;4.67;;;4.23;;
562;SDS011;266;49.514;8.294;2023-06-26T01:33:25;5.37;;;4.87;;
562;SDS011;266;49.514;8.294;2023-06-26T01:35:53;5.53;;;4.70;;
562;SDS011;266;49.514;8.294;2023-06-26T01:38:22;5.67;;;5.17;;
562;SDS011;266;49.514;8.294;2023-06-26T01:40:50;5.23;;;4.73;;
562;SDS011;266;49.514;8.294;2023-06-26T01:43:20;5.83;;;5.30;;
562;SDS011;266;49.514;8.294;2023-06-26T01:45:55;5.33;;;4.93;;
562;SDS011;266;49.514;8.294;2023-06-26T01:48:30;5.23;;;4.73;;
562;SDS011;266;49.514;8.294;2023-06-26T01:51:02;5.30;;;4.80;;
562;SDS011;266;49.514;8.294;2023-06-26T01:53:32;5.30;;;4.70;;
562;SDS011;266;49.514;8.294;2023-06-26T01:56:05;4.93;;;4.43;;
562;SDS011;266;49.514;8.294;2023-06-26T01:58:36;5.23;;;4.80;;
562;SDS011;266;49.514;8.294;2023-06-26T02:01:09;5.50;;;4.90;;
562;SDS011;266;49.514;8.294;2023-06-26T02:03:37;4.53;;;4.13;;
562;SDS011;266;49.514;8.294;2023-06-26T02:06:05;6.00;;;5.50;;
562;SDS011;266;49.514;8.294;2023-06-26T02:08:33;5.50;;;5.10;;
562;SDS011;266;49.514;8.294;2023-06-26T02:11:03;5.70;;;5.20;;
562;SDS011;266;49.514;8.294;2023-06-26T02:13:30;6.67;;;5.80;;
562;SDS011;266;49.514;8.294;2023-06-26T02:15:58;4.93;;;4.47;;
562;SDS011;266;49.514;8.294;2023-06-26T02:18:28;5.20;;;4.70;;
562;SDS011;266;49.514;8.294;2023-06-26T02:20:55;5.40;;;4.90;;
562;SDS011;266;49.514;8.294;2023-06-26T02:23:23;5.70;;;4.77;;
562;SDS011;266;49.514;8.294;2023-06-26T02:25:51;5.53;;;4.93;;
562;SDS011;266;49.514;8.294;2023-06-26T02:28:19;5.80;;;5.27;;
562;SDS011;266;49.514;8.294;2023-06-26T02:30:47;5.23;;;4.40;;
562;SDS011;266;49.514;8.294;2023-06-26T02:33:15;5.17;;;4.67;;
562;SDS011;266;49.514;8.294;2023-06-26T02:35:45;5.67;;;5.17;;
562;SDS011;266;49.514;8.294;2023-06-26T02:38:13;9.10;;;5.20;;
562;SDS011;266;49.514;8.294;2023-06-26T02:40:41;5.30;;;4.90;;
562;SDS011;266;49.514;8.294;2023-06-26T02:43:09;5.27;;;4.77;;
562;SDS011;266;49.514;8.294;2023-06-26T02:45:37;5.03;;;4.63;;
562;SDS011;266;49.514;8.294;2023-06-26T02:48:05;6.40;;;5.50;;
562;SDS011;266;49.514;8.294;2023-06-26T02:50:33;4.87;;;4.37;;
562;SDS011;266;49.514;8.294;2023-06-26T02:53:02;4.83;;;4.40;;
562;SDS011;266;49.514;8.294;2023-06-26T02:55:31;5.37;;;4.87;;
562;SDS011;266;49.514;8.294;2023-06-26T02:57:59;5.17;;;4.67;;
562;SDS011;266;49.514;8.294;2023-06-26T03:00:27;4.93;;;4.53;;
562;SDS011;266;49.514;8.294;2023-06-26T03:02:56;5.43;;;4.93;;
562;SDS011;266;49.514;8.294;2023-06-26T03:05:24;7.00;;;5.90;;
562;SDS011;266;49.514;8.294;2023-06-26T03:07:52;6.00;;;5.40;;
562;SDS011;266;49.514;8.294;2023-06-26T03:10:22;6.70;;;5.27;;
562;SDS011;266;49.514;8.294;2023-06-26T03:12:50;5.70;;;5.13;;
562;SDS011;266;49.514;8.294;2023-06-26T03:15:17;5.40;;;4.10;;
562;SDS011;266;49.514;8.294;2023-06-26T03:17:46;5.13;;;4.73;;
562;SDS011;266;49.514;8.294;2023-06-26T03:20:14;5.70;;;5.20;;
562;SDS011;266;49.514;8.294;2023-06-26T03:22:42;4.93;;;4.53;;
562;SDS011;266;49.514;8.294;2023-06-26T03:25:10;5.37;;;4.90;;
562;SDS011;266;49.514;8.294;2023-06-26T03:27:39;6.33;;;5.73;;
562;SDS011;266;49.514;8.294;2023-06-26T03:30:08;5.77;;;4.90;;
562;SDS011;266;49.514;8.294;2023-06-26T03:32:36;6.10;;;5.50;;
562;SDS011;266;49.514;8.294;2023-06-26T03:35:05;6.27;;;5.30;;
562;SDS011;266;49.514;8.294;2023-06-26T03:37:35;5.63;;;5.00;;
562;SDS011;266;49.514;8.294;2023-06-26T03:40:03;6.73;;;6.13;;
562;SDS011;266;49.514;8.294;2023-06-26T03:42:32;5.30;;;4.80;;
562;SDS011;266;49.514;8.294;2023-06-26T03:45:01;6.43;;;5.93;;
562;SDS011;266;49.514;8.294;2023-06-26T03:47:29;7.03;;;5.83;;
562;SDS011;266;49.514;8.294;2023-06-26T03:49:57;5.20;;;4.70;;
562;SDS011;266;49.514;8.294;2023-06-26T03:52:25;6.60;;;4.80;;
562;SDS011;266;49.514;8.294;2023-06-26T03:54:53;6.57;;;4.87;;
562;SDS011;266;49.514;8.294;2023-06-26T03:57:21;5.37;;;4.60;;
562;SDS011;266;49.514;8.294;2023-06-26T03:59:49;6.67;;;6.00;;
562;SDS011;266;49.514;8.294;2023-06-26T04:02:19;5.30;;;4.80;;
562;SDS011;266;49.514;8.294;2023-06-26T04:04:47;5.50;;;4.97;;
562;SDS011;266;49.514;8.294;2023-06-26T04:07:15;9.07;;;5.87;;
562;SDS011;266;49.514;8.294;2023-06-26T04:09:43;6.60;;;4.83;;
562;SDS011;266;49.514;8.294;2023-06-26T04:12:11;5.40;;;4.97;;
562;SDS011;266;49.514;8.294;2023-06-26T04:14:39;6.13;;;5.00;;
562;SDS011;266;49.514;8.294;2023-06-26T04:17:10;6.30;;;5.73;;
562;SDS011;266;49.514;8.294;2023-06-26T04:19:39;6.90;;;6.20;;
562;SDS011;266;49.514;8.294;2023-06-26T04:22:07;6.93;;;6.33;;
562;SDS011;266;49.514;8.294;2023-06-26T04:24:35;7.97;;;7.17;;
562;SDS011;266;49.514;8.294;2023-06-26T04:27:03;8.93;;;6.50;;
562;SDS011;266;49.514;8.294;2023-06-26T04:29:32;7.30;;;6.60;;
562;SDS011;266;49.514;8.294;2023-06-26T04:32:00;7.93;;;7.23;;
562;SDS011;266;49.514;8.294;2023-06-26T04:34:28;7.83;;;6.27;;
562;SDS011;266;49.514;8.294;2023-06-26T04:37:00;8.10;;;7.40;;
562;SDS011;266;49.514;8.294;2023-06-26T04:39:29;6.90;;;6.20;;
562;SDS011;266;49.514;8.294;2023-06-26T04:41:57;7.30;;;6.67;;
562;SDS011;266;49.514;8.294;2023-06-26T04:44:25;7.47;;;6.77;;
562;SDS011;266;49.514;8.294;2023-06-26T04:46:53;7.03;;;6.43;;
562;SDS011;266;49.514;8.294;2023-06-26T04:49:21;8.53;;;7.17;;
562;SDS011;266;49.514;8.294;2023-06-26T04:51:49;7.70;;;6.90;;
562;SDS011;266;49.514;8.294;2023-06-26T04:54:18;9.47;;;6.67;;
562;SDS011;266;49.514;8.294;2023-06-26T04:56:46;8.07;;;7.17;;
562;SDS011;266;49.514;8.294;2023-06-26T04:59:14;10.17;;;7.50;;
562;SDS011;266;49.514;8.294;2023-06-26T05:01:42;7.13;;;6.43;;
562;SDS011;266;49.514;8.294;2023-06-26T05:04:14;6.97;;;6.30;;
562;SDS011;266;49.514;8.294;2023-06-26T05:06:44;8.30;;;7.50;;
562;SDS011;266;49.514;8.294;2023-06-26T05:09:12;8.53;;;6.73;;
562;SDS011;266;49.514;8.294;2023-06-26T05:11:41;6.93;;;6.33;;
562;SDS011;266;49.514;8.294;2023-06-26T05:14:09;6.03;;;5.43;;
562;SDS011;266;49.514;8.294;2023-06-26T05:16:37;5.53;;;5.03;;
562;SDS011;266;49.514;8.294;2023-06-26T05:19:05;7.97;;;7.13;;
562;SDS011;266;49.514;8.294;2023-06-26T05:21:33;6.57;;;5.97;;
562;SDS011;266;49.514;8.294;2023-06-26T05:24:02;7.13;;;6.30;;
562;SDS011;266;49.514;8.294;2023-06-26T05:26:30;8.90;;;6.73;;
562;SDS011;266;49.514;8.294;2023-06-26T05:29:01;9.90;;;6.10;;
562;SDS011;266;49.514;8.294;2023-06-26T05:31:30;7.30;;;6.60;;
562;SDS011;266;49.514;8.294;2023-06-26T05:34:02;6.73;;;5.80;;
562;SDS011;266;49.514;8.294;2023-06-26T05:36:31;8.90;;;8.00;;
562;SDS011;266;49.514;8.294;2023-06-26T05:39:01;5.90;;;5.20;;
562;SDS011;266;49.514;8.294;2023-06-26T05:41:30;7.27;;;6.10;;
562;SDS011;266;49.514;8.294;2023-06-26T05:43:58;9.73;;;8.07;;
562;SDS011;266;49.514;8.294;2023-06-26T05:46:27;7.37;;;6.67;;
562;SDS011;266;49.514;8.294;2023-06-26T05:48:55;6.80;;;6.10;;
562;SDS011;266;49.514;8.294;2023-06-26T05:51:24;6.37;;;5.87;;
562;SDS011;266;49.514;8.294;2023-06-26T05:53:52;7.43;;;6.70;;
562;SDS011;266;49.514;8.294;2023-06-26T05:56:21;6.83;;;6.10;;
562;SDS011;266;49.514;8.294;2023-06-26T05:58:49;6.30;;;5.70;;
562;SDS011;266;49.514;8.294;2023-06-26T06:01:18;7.90;;;6.60;;
562;SDS011;266;49.514;8.294;2023-06-26T06:03:48;7.50;;;6.80;;
562;SDS011;266;49.514;8.294;2023-06-26T06:06:19;6.93;;;6.23;;
562;SDS011;266;49.514;8.294;2023-06-26T06:08:47;7.10;;;6.00;;
562;SDS011;266;49.514;8.294;2023-06-26T06:11:15;9.10;;;6.83;;
562;SDS011;266;49.514;8.294;2023-06-26T06:13:43;8.37;;;6.87;;
562;SDS011;266;49.514;8.294;2023-06-26T06:16:11;5.90;;;5.33;;
562;SDS011;266;49.514;8.294;2023-06-26T06:18:38;7.63;;;6.33;;
562;SDS011;266;49.514;8.294;2023-06-26T06:21:08;7.73;;;6.10;;
562;SDS011;266;49.514;8.294;2023-06-26T06:23:36;6.33;;;5.33;;
562;SDS011;266;49.514;8.294;2023-06-26T06:26:04;6.03;;;5.43;;
562;SDS011;266;49.514;8.294;2023-06-26T06:28:32;7.30;;;6.53;;
562;SDS011;266;49.514;8.294;2023-06-26T06:31:00;7.40;;;6.70;;
562;SDS011;266;49.514;8.294;2023-06-26T06:33:29;5.77;;;5.27;;
562;SDS011;266;49.514;8.294;2023-06-26T06:35:57;9.80;;;5.53;;
562;SDS011;266;49.514;8.294;2023-06-26T06:38:26;6.77;;;6.07;;
562;SDS011;266;49.514;8.294;2023-06-26T06:40:54;7.43;;;5.70;;
562;SDS011;266;49.514;8.294;2023-06-26T06:43:22;6.43;;;5.73;;
562;SDS011;266;49.514;8.294;2023-06-26T06:45:50;7.17;;;6.47;;
562;SDS011;266;49.514;8.294;2023-06-26T06:48:18;6.47;;;5.97;;
562;SDS011;266;49.514;8.294;2023-06-26T06:50:47;7.07;;;6.37;;
562;SDS011;266;49.514;8.294;2023-06-26T06:53:15;6.43;;;5.80;;
562;SDS011;266;49.514;8.294;2023-06-26T06:55:48;7.37;;;6.00;;
562;SDS011;266;49.514;8.294;2023-06-26T06:58:16;5.93;;;5.33;;
562;SDS011;266;49.514;8.294;2023-06-26T07:00:45;6.43;;;5.83;;
562;SDS011;266;49.514;8.294;2023-06-26T07:03:14;7.03;;;6.43;;
562;SDS011;266;49.514;8.294;2023-06-26T07:05:42;7.20;;;6.60;;
562;SDS011;266;49.514;8.294;2023-06-26T07:08:10;6.57;;;5.97;;
562;SDS011;266;49.514;8.294;2023-06-26T07:10:39;6.90;;;5.90;;
562;SDS011;266;49.514;8.294;2023-06-26T07:13:08;6.10;;;5.50;;
562;SDS011;266;49.514;8.294;2023-06-26T07:15:37;11.10;;;6.97;;
562;SDS011;266;49.514;8.294;2023-06-26T07:18:05;5.90;;;5.40;;
562;SDS011;266;49.514;8.294;2023-06-26T07:20:33;8.23;;;7.43;;
562;SDS011;266;49.514;8.294;2023-06-26T07:23:01;6.60;;;5.30;;
562;SDS011;266;49.514;8.294;2023-06-26T07:25:28;6.03;;;5.43;;
562;SDS011;266;49.514;8.294;2023-06-26T07:27:56;5.90;;;5.30;;
562;SDS011;266;49.514;8.294;2023-06-26T07:30:26;6.50;;;5.30;;
562;SDS011;266;49.514;8.294;2023-06-26T07:32:54;5.93;;;5.43;;
562;SDS011;266;49.514;8.294;2023-06-26T07:35:22;6.87;;;6.17;;
562;SDS011;266;49.514;8.294;2023-06-26T07:37:51;6.60;;;6.00;;
562;SDS011;266;49.514;8.294;2023-06-26T07:40:19;5.83;;;5.33;;
562;SDS011;266;49.514;8.294;2023-06-26T07:42:47;5.70;;;5.20;;
562;SDS011;266;49.514;8.294;2023-06-26T07:45:15;6.20;;;5.60;;
562;SDS011;266;49.514;8.294;2023-06-26T07:47:45;6.10;;;5.50;;
562;SDS011;266;49.514;8.294;2023-06-26T07:50:13;6.30;;;5.70;;
562;SDS011;266;49.514;8.294;2023-06-26T07:52:45;5.83;;;5.33;;
562;SDS011;266;49.514;8.294;2023-06-26T07:55:13;5.80;;;5.30;;
562;SDS011;266;49.514;8.294;2023-06-26T07:57:41;5.77;;;5.27;;
562;SDS011;266;49.514;8.294;2023-06-26T08:00:10;7.17;;;6.10;;
562;SDS011;266;49.514;8.294;2023-06-26T08:02:38;6.10;;;5.53;;
562;SDS011;266;49.514;8.294;2023-06-26T08:05:08;5.93;;;5.30;;
562;SDS011;266;49.514;8.294;2023-06-26T08:07:36;5.40;;;4.90;;
562;SDS011;266;49.514;8.294;2023-06-26T08:10:04;5.43;;;5.00;;
562;SDS011;266;49.514;8.294;2023-06-26T08:12:32;5.90;;;5.30;;
562;SDS011;266;49.514;8.294;2023-06-26T08:15:01;6.23;;;5.50;;
562;SDS011;266;49.514;8.294;2023-06-26T08:17:29;7.60;;;5.33;;
562;SDS011;266;49.514;8.294;2023-06-26T08:19:57;6.30;;;5.70;;
562;SDS011;266;49.514;8.294;2023-06-26T08:22:27;5.33;;;4.90;;
562;SDS011;266;49.514;8.294;2023-06-26T08:24:55;5.03;;;4.53;;
562;SDS011;266;49.514;8.294;2023-06-26T08:27:22;4.60;;;4.20;;
562;SDS011;266;49.514;8.294;2023-06-26T08:29:50;5.60;;;5.13;;
562;SDS011;266;49.514;8.294;2023-06-26T08:32:18;5.40;;;4.90;;
562;SDS011;266;49.514;8.294;2023-06-26T08:34:46;5.20;;;4.80;;
562;SDS011;266;49.514;8.294;2023-06-26T08:37:14;7.70;;;4.70;;
562;SDS011;266;49.514;8.294;2023-06-26T08:39:44;5.30;;;4.80;;
562;SDS011;266;49.514;8.294;2023-06-26T08:42:12;4.70;;;4.30;;
562;SDS011;266;49.514;8.294;2023-06-26T08:44:40;5.03;;;4.53;;
562;SDS011;266;49.514;8.294;2023-06-26T08:47:25;4.40;;;4.00;;
562;SDS011;266;49.514;8.294;2023-06-26T08:49:56;4.80;;;4.30;;
562;SDS011;266;49.514;8.294;2023-06-26T08:52:33;4.63;;;4.30;;
562;SDS011;266;49.514;8.294;2023-06-26T08:55:06;5.13;;;4.63;;
562;SDS011;266;49.514;8.294;2023-06-26T08:57:37;8.73;;;4.83;;
562;SDS011;266;49.514;8.294;2023-06-26T09:00:05;7.17;;;5.53;;
562;SDS011;266;49.514;8.294;2023-06-26T09:02:35;6.87;;;6.27;;
562;SDS011;266;49.514;8.294;2023-06-26T09:05:04;7.77;;;5.33;;
562;SDS011;266;49.514;8.294;2023-06-26T09:07:32;4.53;;;4.20;;
562;SDS011;266;49.514;8.294;2023-06-26T09:10:00;4.90;;;4.50;;
562;SDS011;266;49.514;8.294;2023-06-26T09:12:30;6.23;;;5.73;;
562;SDS011;266;49.514;8.294;2023-06-26T09:14:59;5.70;;;5.30;;
562;SDS011;266;49.514;8.294;2023-06-26T09:17:29;5.20;;;4.70;;
562;SDS011;266;49.514;8.294;2023-06-26T09:19:58;5.93;;;5.43;;
562;SDS011;266;49.514;8.294;2023-06-26T09:22:26;6.23;;;5.70;;
562;SDS011;266;49.514;8.294;2023-06-26T09:24:54;5.87;;;5.13;;
562;SDS011;266;49.514;8.294;2023-06-26T09:27:22;5.97;;;5.37;;
562;SDS011;266;49.514;8.294;2023-06-26T09:29:55;6.77;;;4.80;;
562;SDS011;266;49.514;8.294;2023-06-26T09:32:24;5.90;;;5.33;;
562;SDS011;266;49.514;8.294;2023-06-26T09:34:54;5.90;;;5.40;;
562;SDS011;266;49.514;8.294;2023-06-26T09:37:23;5.40;;;5.00;;
562;SDS011;266;49.514;8.294;2023-06-26T09:39:51;6.23;;;5.63;;
562;SDS011;266;49.514;8.294;2023-06-26T09:42:19;5.93;;;5.33;;
562;SDS011;266;49.514;8.294;2023-06-26T09:44:48;6.77;;;6.17;;
562;SDS011;266;49.514;8.294;2023-06-26T09:47:19;6.30;;;5.70;;
562;SDS011;266;49.514;8.294;2023-06-26T09:49:50;5.60;;;5.10;;
562;SDS011;266;49.514;8.294;2023-06-26T09:52:21;5.97;;;5.47;;
562;SDS011;266;49.514;8.294;2023-06-26T09:54:55;5.77;;;5.27;;
562;SDS011;266;49.514;8.294;2023-06-26T09:57:36;8.43;;;5.60;;
562;SDS011;266;49.514;8.294;2023-06-26T10:00:05;6.20;;;5.70;;
562;SDS011;266;49.514;8.294;2023-06-26T10:02:37;6.50;;;6.00;;
562;SDS011;266;49.514;8.294;2023-06-26T10:05:05;7.63;;;6.37;;
562;SDS011;266;49.514;8.294;2023-06-26T10:07:33;6.20;;;5.00;;
562;SDS011;266;49.514;8.294;2023-06-26T10:10:04;6.57;;;4.93;;
562;SDS011;266;49.514;8.294;2023-06-26T10:12:34;6.23;;;5.63;;
562;SDS011;266;49.514;8.294;2023-06-26T10:15:03;6.67;;;6.07;;
562;SDS011;266;49.514;8.294;2023-06-26T10:17:38;7.10;;;5.40;;
562;SDS011;266;49.514;8.294;2023-06-26T10:20:09;6.03;;;5.53;;
562;SDS011;266;49.514;8.294;2023-06-26T10:22:39;6.50;;;5.60;;
562;SDS011;266;49.514;8.294;2023-06-26T10:25:12;6.70;;;6.00;;
562;SDS011;266;49.514;8.294;2023-06-26T10:27:46;5.50;;;5.10;;
562;SDS011;266;49.514;8.294;2023-06-26T10:30:19;6.20;;;5.60;;
562;SDS011;266;49.514;8.294;2023-06-26T10:32:51;5.97;;;5.47;;
562;SDS011;266;49.514;8.294;2023-06-26T10:35:20;5.93;;;5.43;;
562;SDS011;266;49.514;8.294;2023-06-26T10:37:49;5.17;;;4.77;;
562;SDS011;266;49.514;8.294;2023-06-26T10:40:21;6.50;;;5.17;;
562;SDS011;266;49.514;8.294;2023-06-26T10:42:52;6.00;;;5.57;;
562;SDS011;266;49.514;8.294;2023-06-26T10:45:33;5.40;;;4.90;;
562;SDS011;266;49.514;8.294;2023-06-26T10:48:04;5.50;;;4.73;;
562;SDS011;266;49.514;8.294;2023-06-26T10:50:33;6.80;;;4.93;;
562;SDS011;266;49.514;8.294;2023-06-26T10:53:14;4.77;;;4.37;;
562;SDS011;266;49.514;8.294;2023-06-26T10:55:49;4.63;;;4.23;;
562;SDS011;266;49.514;8.294;2023-06-26T10:58:27;4.90;;;4.40;;
562;SDS011;266;49.514;8.294;2023-06-26T11:03:46;4.83;;;4.33;;
562;SDS011;266;49.514;8.294;2023-06-26T11:06:17;4.73;;;4.33;;
562;SDS011;266;49.514;8.294;2023-06-26T11:08:47;4.60;;;4.20;;
562;SDS011;266;49.514;8.294;2023-06-26T11:11:16;4.33;;;3.97;;
562;SDS011;266;49.514;8.294;2023-06-26T11:13:45;3.93;;;3.50;;
562;SDS011;266;49.514;8.294;2023-06-26T11:16:14;5.47;;;3.90;;
562;SDS011;266;49.514;8.294;2023-06-26T11:18:42;3.87;;;3.57;;
562;SDS011;266;49.514;8.294;2023-06-26T11:21:13;4.20;;;3.80;;
562;SDS011;266;49.514;8.294;2023-06-26T11:23:41;4.70;;;4.20;;
562;SDS011;266;49.514;8.294;2023-06-26T11:26:15;5.77;;;5.27;;
562;SDS011;266;49.514;8.294;2023-06-26T11:28:47;4.63;;;4.13;;
562;SDS011;266;49.514;8.294;2023-06-26T11:31:25;4.90;;;4.50;;
562;SDS011;266;49.514;8.294;2023-06-26T11:33:58;4.20;;;3.83;;
562;SDS011;266;49.514;8.294;2023-06-26T11:36:29;4.17;;;3.77;;
562;SDS011;266;49.514;8.294;2023-06-26T11:39:00;4.70;;;4.30;;
562;SDS011;266;49.514;8.294;2023-06-26T11:41:29;3.87;;;3.57;;
562;SDS011;266;49.514;8.294;2023-06-26T11:44:00;4.83;;;3.80;;
562;SDS011;266;49.514;8.294;2023-06-26T11:46:30;4.30;;;3.90;;
562;SDS011;266;49.514;8.294;2023-06-26T11:48:59;4.20;;;3.90;;
562;SDS011;266;49.514;8.294;2023-06-26T11:51:29;4.40;;;4.10;;
562;SDS011;266;49.514;8.294;2023-06-26T11:53:57;3.80;;;3.50;;
562;SDS011;266;49.514;8.294;2023-06-26T11:56:27;3.27;;;2.97;;
562;SDS011;266;49.514;8.294;2023-06-26T11:58:57;4.00;;;3.60;;
562;SDS011;266;49.514;8.294;2023-06-26T12:01:27;4.60;;;4.20;;
562;SDS011;266;49.514;8.294;2023-06-26T12:04:00;4.67;;;4.27;;
562;SDS011;266;49.514;8.294;2023-06-26T12:06:32;8.23;;;4.87;;
562;SDS011;266;49.514;8.294;2023-06-26T12:09:02;9.20;;;5.73;;
562;SDS011;266;49.514;8.294;2023-06-26T12:11:32;5.93;;;4.73;;
562;SDS011;266;49.514;8.294;2023-06-26T12:14:02;4.20;;;3.80;;
562;SDS011;266;49.514;8.294;2023-06-26T12:16:32;5.60;;;5.07;;
562;SDS011;266;49.514;8.294;2023-06-26T12:19:01;5.13;;;4.63;;
562;SDS011;266;49.514;8.294;2023-06-26T12:21:45;4.97;;;4.50;;
562;SDS011;266;49.514;8.294;2023-06-26T12:24:19;4.90;;;4.50;;
562;SDS011;266;49.514;8.294;2023-06-26T12:26:49;7.00;;;6.17;;
562;SDS011;266;49.514;8.294;2023-06-26T12:29:20;6.43;;;5.83;;
562;SDS011;266;49.514;8.294;2023-06-26T12:31:49;7.20;;;6.50;;
562;SDS011;266;49.514;8.294;2023-06-26T12:34:18;7.40;;;6.57;;
562;SDS011;266;49.514;8.294;2023-06-26T12:36:48;6.23;;;5.73;;
562;SDS011;266;49.514;8.294;2023-06-26T12:39:19;5.40;;;4.90;;
562;SDS011;266;49.514;8.294;2023-06-26T12:41:48;5.57;;;5.07;;
562;SDS011;266;49.514;8.294;2023-06-26T12:44:19;6.03;;;5.43;;
562;SDS011;266;49.514;8.294;2023-06-26T12:46:57;6.13;;;4.60;;
562;SDS011;266;49.514;8.294;2023-06-26T12:49:29;7.40;;;5.23;;
562;SDS011;266;49.514;8.294;2023-06-26T12:52:01;5.33;;;4.83;;
562;SDS011;266;49.514;8.294;2023-06-26T12:54:30;6.50;;;5.90;;
562;SDS011;266;49.514;8.294;2023-06-26T12:56:58;6.40;;;5.23;;
562;SDS011;266;49.514;8.294;2023-06-26T12:59:26;5.70;;;5.20;;
562;SDS011;266;49.514;8.294;2023-06-26T13:01:54;6.20;;;5.30;;
562;SDS011;266;49.514;8.294;2023-06-26T13:04:23;5.00;;;4.50;;
562;SDS011;266;49.514;8.294;2023-06-26T13:06:51;4.20;;;3.90;;
562;SDS011;266;49.514;8.294;2023-06-26T13:09:22;5.23;;;4.73;;
562;SDS011;266;49.514;8.294;2023-06-26T13:11:51;4.70;;;4.30;;
562;SDS011;266;49.514;8.294;2023-06-26T13:14:19;4.20;;;3.90;;
562;SDS011;266;49.514;8.294;2023-06-26T13:16:47;4.93;;;4.00;;
562;SDS011;266;49.514;8.294;2023-06-26T13:19:15;3.47;;;3.17;;
562;SDS011;266;49.514;8.294;2023-06-26T13:21:43;4.20;;;3.50;;
562;SDS011;266;49.514;8.294;2023-06-26T13:24:12;3.00;;;2.43;;
562;SDS011;266;49.514;8.294;2023-06-26T13:26:42;3.50;;;2.87;;
562;SDS011;266;49.514;8.294;2023-06-26T13:29:10;3.40;;;3.10;;
562;SDS011;266;49.514;8.294;2023-06-26T13:31:38;3.10;;;2.57;;
562;SDS011;266;49.514;8.294;2023-06-26T13:34:06;1.90;;;1.80;;
562;SDS011;266;49.514;8.294;2023-06-26T13:36:34;2.33;;;2.10;;
562;SDS011;266;49.514;8.294;2023-06-26T13:39:03;3.43;;;2.53;;
562;SDS011;266;49.514;8.294;2023-06-26T13:41:31;2.40;;;2.20;;
562;SDS011;266;49.514;8.294;2023-06-26T13:44:01;4.13;;;2.23;;
562;SDS011;266;49.514;8.294;2023-06-26T13:46:41;2.40;;;2.20;;
562;SDS011;266;49.514;8.294;2023-06-26T13:49:09;2.17;;;1.97;;
562;SDS011;266;49.514;8.294;2023-06-26T13:51:37;3.00;;;2.70;;
562;SDS011;266;49.514;8.294;2023-06-26T13:54:11;2.57;;;1.50;;
562;SDS011;266;49.514;8.294;2023-06-26T13:56:39;2.03;;;1.70;;
562;SDS011;266;49.514;8.294;2023-06-26T13:59:08;5.60;;;1.70;;
562;SDS011;266;49.514;8.294;2023-06-26T14:01:38;2.53;;;1.90;;
562;SDS011;266;49.514;8.294;2023-06-26T14:04:09;2.07;;;1.70;;
562;SDS011;266;49.514;8.294;2023-06-26T14:06:37;2.90;;;1.90;;
562;SDS011;266;49.514;8.294;2023-06-26T14:09:05;3.97;;;2.30;;
562;SDS011;266;49.514;8.294;2023-06-26T14:11:33;2.40;;;2.03;;
562;SDS011;266;49.514;8.294;2023-06-26T14:14:01;1.70;;;1.60;;
562;SDS011;266;49.514;8.294;2023-06-26T14:16:30;7.33;;;3.70;;
562;SDS011;266;49.514;8.294;2023-06-26T14:18:58;2.13;;;1.80;;
562;SDS011;266;49.514;8.294;2023-06-26T14:21:26;1.70;;;1.60;;
562;SDS011;266;49.514;8.294;2023-06-26T14:23:54;2.97;;;2.03;;
562;SDS011;266;49.514;8.294;2023-06-26T14:26:22;3.03;;;1.70;;
562;SDS011;266;49.514;8.294;2023-06-26T14:28:50;3.13;;;2.00;;
562;SDS011;266;49.514;8.294;2023-06-26T14:31:18;6.60;;;2.00;;
562;SDS011;266;49.514;8.294;2023-06-26T14:33:48;4.93;;;2.53;;
562;SDS011;266;49.514;8.294;2023-06-26T14:36:16;2.90;;;1.67;;
562;SDS011;266;49.514;8.294;2023-06-26T14:38:45;2.33;;;2.13;;
562;SDS011;266;49.514;8.294;2023-06-26T14:41:13;2.33;;;2.13;;
562;SDS011;266;49.514;8.294;2023-06-26T14:43:42;1.73;;;1.63;;
562;SDS011;266;49.514;8.294;2023-06-26T14:46:12;4.23;;;2.30;;
562;SDS011;266;49.514;8.294;2023-06-26T14:48:40;2.57;;;2.37;;
562;SDS011;266;49.514;8.294;2023-06-26T14:51:10;2.20;;;2.00;;
562;SDS011;266;49.514;8.294;2023-06-26T14:53:38;2.07;;;1.87;;
562;SDS011;266;49.514;8.294;2023-06-26T14:56:06;2.33;;;2.17;;
562;SDS011;266;49.514;8.294;2023-06-26T14:58:34;1.80;;;1.70;;
562;SDS011;266;49.514;8.294;2023-06-26T15:01:02;2.90;;;2.50;;
562;SDS011;266;49.514;8.294;2023-06-26T15:03:30;2.27;;;1.87;;
562;SDS011;266;49.514;8.294;2023-06-26T15:05:58;3.40;;;2.30;;
562;SDS011;266;49.514;8.294;2023-06-26T15:08:28;2.17;;;1.80;;
562;SDS011;266;49.514;8.294;2023-06-26T15:10:56;3.30;;;2.20;;
562;SDS011;266;49.514;8.294;2023-06-26T15:13:23;2.30;;;2.10;;
562;SDS011;266;49.514;8.294;2023-06-26T15:15:52;1.80;;;1.70;;
562;SDS011;266;49.514;8.294;2023-06-26T15:18:20;3.77;;;2.10;;
562;SDS011;266;49.514;8.294;2023-06-26T15:20:48;2.87;;;2.13;;
562;SDS011;266;49.514;8.294;2023-06-26T15:23:16;2.07;;;1.97;;
562;SDS011;266;49.514;8.294;2023-06-26T15:25:45;2.40;;;1.53;;
562;SDS011;266;49.514;8.294;2023-06-26T15:28:13;3.30;;;1.80;;
562;SDS011;266;49.514;8.294;2023-06-26T15:30:41;2.00;;;1.80;;
562;SDS011;266;49.514;8.294;2023-06-26T15:33:10;1.63;;;1.53;;
562;SDS011;266;49.514;8.294;2023-06-26T15:35:38;2.70;;;1.90;;
562;SDS011;266;49.514;8.294;2023-06-26T15:38:06;3.10;;;1.57;;
562;SDS011;266;49.514;8.294;2023-06-26T15:40:34;3.10;;;1.33;;
562;SDS011;266;49.514;8.294;2023-06-26T15:43:04;1.63;;;1.50;;
562;SDS011;266;49.514;8.294;2023-06-26T15:45:32;3.17;;;2.10;;
562;SDS011;266;49.514;8.294;2023-06-26T15:48:01;4.60;;;2.00;;
562;SDS011;266;49.514;8.294;2023-06-26T15:50:30;1.60;;;1.50;;
562;SDS011;266;49.514;8.294;2023-06-26T15:52:57;4.40;;;2.20;;
562;SDS011;266;49.514;8.294;2023-06-26T15:55:26;3.40;;;1.60;;
562;SDS011;266;49.514;8.294;2023-06-26T15:57:54;1.90;;;1.60;;
562;SDS011;266;49.514;8.294;2023-06-26T16:00:24;2.27;;;1.67;;